sensor_id;sensor_type;location;lat;lon;timestamp;P1;durP1;ratioP1;P2;durP2;ratioP2
1567;SDS011;777;47.156;8.326;2022-10-15T00:01:30;3.78;;;3.10;;
1567;SDS011;777;47.156;8.326;2022-10-15T00:03:58;5.07;;;3.30;;
1567;SDS011;777;47.156;8.326;2022-10-15T00:06:26;4.75;;;3.00;;
1567;SDS011;777;47.156;8.326;2022-10-15T00:08:53;5.75;;;2.90;;
1567;SDS011;777;47.156;8.326;2022-10-15T00:11:20;4.72;;;3.08;;
1567;SDS011;777;47.156;8.326;2022-10-15T00:13:50;3.63;;;2.90;;
1567;SDS011;777;47.156;8.326;2022-10-15T00:16:19;3.17;;;2.70;;
1567;SDS011;777;47.156;8.326;2022-10-15T00:18:48;3.53;;;2.90;;
1567;SDS011;777;47.156;8.326;2022-10-15T00:21:17;4.00;;;3.13;;
1567;SDS011;777;47.156;8.326;2022-10-15T00:23:45;7.05;;;2.95;;
1567;SDS011;777;47.156;8.326;2022-10-15T00:26:13;3.40;;;2.80;;
1567;SDS011;777;47.156;8.326;2022-10-15T00:28:42;5.32;;;3.38;;
1567;SDS011;777;47.156;8.326;2022-10-15T00:31:11;4.80;;;3.35;;
1567;SDS011;777;47.156;8.326;2022-10-15T00:33:40;4.15;;;3.47;;
1567;SDS011;777;47.156;8.326;2022-10-15T00:36:09;5.10;;;3.95;;
1567;SDS011;777;47.156;8.326;2022-10-15T00:38:38;5.78;;;3.88;;
1567;SDS011;777;47.156;8.326;2022-10-15T00:41:06;4.57;;;4.15;;
1567;SDS011;777;47.156;8.326;2022-10-15T00:43:38;5.72;;;4.25;;
1567;SDS011;777;47.156;8.326;2022-10-15T00:46:14;6.20;;;4.40;;
1567;SDS011;777;47.156;8.326;2022-10-15T00:48:45;5.28;;;4.22;;
1567;SDS011;777;47.156;8.326;2022-10-15T00:51:14;4.90;;;4.40;;
1567;SDS011;777;47.156;8.326;2022-10-15T00:53:43;6.10;;;4.50;;
1567;SDS011;777;47.156;8.326;2022-10-15T00:56:11;7.32;;;4.80;;
1567;SDS011;777;47.156;8.326;2022-10-15T00:58:40;6.07;;;4.30;;
1567;SDS011;777;47.156;8.326;2022-10-15T01:01:07;4.30;;;3.90;;
1567;SDS011;777;47.156;8.326;2022-10-15T01:03:36;4.60;;;3.90;;
1567;SDS011;777;47.156;8.326;2022-10-15T01:06:03;5.32;;;4.50;;
1567;SDS011;777;47.156;8.326;2022-10-15T01:08:31;4.50;;;4.10;;
1567;SDS011;777;47.156;8.326;2022-10-15T01:11:02;6.00;;;4.65;;
1567;SDS011;777;47.156;8.326;2022-10-15T01:13:37;5.35;;;4.68;;
1567;SDS011;777;47.156;8.326;2022-10-15T01:16:15;5.85;;;4.43;;
1567;SDS011;777;47.156;8.326;2022-10-15T01:18:50;5.50;;;4.40;;
1567;SDS011;777;47.156;8.326;2022-10-15T01:21:24;4.90;;;4.30;;
1567;SDS011;777;47.156;8.326;2022-10-15T01:24:13;6.72;;;4.72;;
1567;SDS011;777;47.156;8.326;2022-10-15T01:30:10;6.20;;;5.10;;
1567;SDS011;777;47.156;8.326;2022-10-15T01:32:52;4.85;;;4.35;;
1567;SDS011;777;47.156;8.326;2022-10-15T01:35:32;5.00;;;4.18;;
1567;SDS011;777;47.156;8.326;2022-10-15T01:38:08;5.32;;;4.50;;
1567;SDS011;777;47.156;8.326;2022-10-15T01:40:49;4.95;;;4.30;;
1567;SDS011;777;47.156;8.326;2022-10-15T01:43:20;5.82;;;3.60;;
1567;SDS011;777;47.156;8.326;2022-10-15T01:46:13;3.08;;;2.20;;
1567;SDS011;777;47.156;8.326;2022-10-15T01:49:02;1.88;;;1.50;;
1567;SDS011;777;47.156;8.326;2022-10-15T01:51:32;2.13;;;1.40;;
1567;SDS011;777;47.156;8.326;2022-10-15T01:54:03;3.10;;;1.23;;
1567;SDS011;777;47.156;8.326;2022-10-15T01:56:33;1.58;;;1.08;;
1567;SDS011;777;47.156;8.326;2022-10-15T01:59:02;3.67;;;1.40;;
1567;SDS011;777;47.156;8.326;2022-10-15T02:01:33;3.22;;;1.00;;
1567;SDS011;777;47.156;8.326;2022-10-15T02:04:15;2.88;;;1.00;;
1567;SDS011;777;47.156;8.326;2022-10-15T02:06:47;1.55;;;0.95;;
1567;SDS011;777;47.156;8.326;2022-10-15T02:09:20;2.15;;;1.17;;
1567;SDS011;777;47.156;8.326;2022-10-15T02:11:58;3.05;;;1.13;;
1567;SDS011;777;47.156;8.326;2022-10-15T02:14:39;2.47;;;1.13;;
1567;SDS011;777;47.156;8.326;2022-10-15T02:17:11;1.45;;;1.10;;
1567;SDS011;777;47.156;8.326;2022-10-15T02:19:47;2.42;;;1.25;;
1567;SDS011;777;47.156;8.326;2022-10-15T02:22:17;1.80;;;1.20;;
1567;SDS011;777;47.156;8.326;2022-10-15T02:24:48;4.03;;;1.90;;
1567;SDS011;777;47.156;8.326;2022-10-15T02:27:20;5.32;;;2.33;;
1567;SDS011;777;47.156;8.326;2022-10-15T02:29:47;2.65;;;2.45;;
1567;SDS011;777;47.156;8.326;2022-10-15T02:32:18;2.40;;;2.20;;
1567;SDS011;777;47.156;8.326;2022-10-15T02:34:47;4.68;;;1.73;;
1567;SDS011;777;47.156;8.326;2022-10-15T02:37:16;3.83;;;1.70;;
1567;SDS011;777;47.156;8.326;2022-10-15T02:39:46;4.88;;;2.03;;
1567;SDS011;777;47.156;8.326;2022-10-15T02:42:13;2.42;;;1.83;;
1567;SDS011;777;47.156;8.326;2022-10-15T02:44:41;1.95;;;1.48;;
1567;SDS011;777;47.156;8.326;2022-10-15T02:47:08;5.05;;;2.25;;
1567;SDS011;777;47.156;8.326;2022-10-15T02:49:39;4.07;;;2.63;;
1567;SDS011;777;47.156;8.326;2022-10-15T02:52:06;3.70;;;2.72;;
1567;SDS011;777;47.156;8.326;2022-10-15T02:54:33;4.00;;;2.90;;
1567;SDS011;777;47.156;8.326;2022-10-15T02:57:00;4.65;;;2.95;;
1567;SDS011;777;47.156;8.326;2022-10-15T02:59:27;2.88;;;2.42;;
1567;SDS011;777;47.156;8.326;2022-10-15T03:01:55;3.58;;;3.25;;
1567;SDS011;777;47.156;8.326;2022-10-15T03:04:23;5.93;;;3.63;;
1567;SDS011;777;47.156;8.326;2022-10-15T03:06:51;4.80;;;3.60;;
1567;SDS011;777;47.156;8.326;2022-10-15T03:09:18;7.50;;;3.95;;
1567;SDS011;777;47.156;8.326;2022-10-15T03:11:45;4.93;;;3.40;;
1567;SDS011;777;47.156;8.326;2022-10-15T03:14:13;6.00;;;3.88;;
1567;SDS011;777;47.156;8.326;2022-10-15T03:16:40;5.78;;;2.92;;
1567;SDS011;777;47.156;8.326;2022-10-15T03:19:09;5.13;;;3.20;;
1567;SDS011;777;47.156;8.326;2022-10-15T03:21:37;3.90;;;3.10;;
1567;SDS011;777;47.156;8.326;2022-10-15T03:24:10;3.75;;;3.35;;
1567;SDS011;777;47.156;8.326;2022-10-15T03:26:37;5.90;;;3.67;;
1567;SDS011;777;47.156;8.326;2022-10-15T03:29:04;3.72;;;3.42;;
1567;SDS011;777;47.156;8.326;2022-10-15T03:31:51;4.90;;;4.00;;
1567;SDS011;777;47.156;8.326;2022-10-15T03:34:19;4.68;;;3.50;;
1567;SDS011;777;47.156;8.326;2022-10-15T03:36:47;6.38;;;4.13;;
1567;SDS011;777;47.156;8.326;2022-10-15T03:39:16;4.82;;;3.85;;
1567;SDS011;777;47.156;8.326;2022-10-15T03:41:43;6.18;;;4.13;;
1567;SDS011;777;47.156;8.326;2022-10-15T03:44:16;8.23;;;4.50;;
1567;SDS011;777;47.156;8.326;2022-10-15T03:46:51;6.82;;;3.90;;
1567;SDS011;777;47.156;8.326;2022-10-15T03:49:21;7.05;;;5.25;;
1567;SDS011;777;47.156;8.326;2022-10-15T03:51:48;5.45;;;4.43;;
1567;SDS011;777;47.156;8.326;2022-10-15T03:54:19;5.65;;;4.72;;
1567;SDS011;777;47.156;8.326;2022-10-15T03:56:49;8.23;;;4.30;;
1567;SDS011;777;47.156;8.326;2022-10-15T03:59:43;4.53;;;4.13;;
1567;SDS011;777;47.156;8.326;2022-10-15T04:02:10;7.90;;;4.95;;
1567;SDS011;777;47.156;8.326;2022-10-15T04:04:37;5.50;;;4.25;;
1567;SDS011;777;47.156;8.326;2022-10-15T04:07:04;5.95;;;4.40;;
1567;SDS011;777;47.156;8.326;2022-10-15T04:09:33;4.82;;;4.32;;
1567;SDS011;777;47.156;8.326;2022-10-15T04:12:19;5.80;;;4.10;;
1567;SDS011;777;47.156;8.326;2022-10-15T04:14:46;4.13;;;3.83;;
1567;SDS011;777;47.156;8.326;2022-10-15T04:17:14;4.22;;;2.85;;
1567;SDS011;777;47.156;8.326;2022-10-15T04:19:41;4.82;;;2.47;;
1567;SDS011;777;47.156;8.326;2022-10-15T04:22:08;5.72;;;2.15;;
1567;SDS011;777;47.156;8.326;2022-10-15T04:24:50;4.70;;;1.83;;
1567;SDS011;777;47.156;8.326;2022-10-15T04:27:25;3.28;;;2.83;;
1567;SDS011;777;47.156;8.326;2022-10-15T04:30:01;5.80;;;3.65;;
1567;SDS011;777;47.156;8.326;2022-10-15T04:32:29;4.30;;;3.17;;
1567;SDS011;777;47.156;8.326;2022-10-15T04:34:56;6.90;;;3.20;;
1567;SDS011;777;47.156;8.326;2022-10-15T04:37:41;2.85;;;2.60;;
1567;SDS011;777;47.156;8.326;2022-10-15T04:40:10;3.55;;;2.80;;
1567;SDS011;777;47.156;8.326;2022-10-15T04:42:39;4.45;;;3.00;;
1567;SDS011;777;47.156;8.326;2022-10-15T04:45:06;4.38;;;3.08;;
1567;SDS011;777;47.156;8.326;2022-10-15T04:47:34;4.28;;;3.88;;
1567;SDS011;777;47.156;8.326;2022-10-15T04:50:11;4.13;;;3.53;;
1567;SDS011;777;47.156;8.326;2022-10-15T04:52:58;4.05;;;3.40;;
1567;SDS011;777;47.156;8.326;2022-10-15T04:55:29;4.80;;;3.45;;
1567;SDS011;777;47.156;8.326;2022-10-15T04:57:58;3.80;;;3.50;;
1567;SDS011;777;47.156;8.326;2022-10-15T05:00:29;6.40;;;3.40;;
1567;SDS011;777;47.156;8.326;2022-10-15T05:03:05;6.32;;;3.40;;
1567;SDS011;777;47.156;8.326;2022-10-15T05:05:52;3.47;;;3.03;;
1567;SDS011;777;47.156;8.326;2022-10-15T05:08:19;4.72;;;3.00;;
1567;SDS011;777;47.156;8.326;2022-10-15T05:11:03;4.05;;;3.65;;
1567;SDS011;777;47.156;8.326;2022-10-15T05:13:32;3.85;;;3.55;;
1567;SDS011;777;47.156;8.326;2022-10-15T05:16:07;5.80;;;3.80;;
1567;SDS011;777;47.156;8.326;2022-10-15T05:18:36;7.40;;;4.30;;
1567;SDS011;777;47.156;8.326;2022-10-15T05:21:04;4.57;;;4.18;;
1567;SDS011;777;47.156;8.326;2022-10-15T05:23:32;5.97;;;4.28;;
1567;SDS011;777;47.156;8.326;2022-10-15T05:26:18;7.55;;;4.70;;
1567;SDS011;777;47.156;8.326;2022-10-15T05:28:47;9.57;;;4.45;;
1567;SDS011;777;47.156;8.326;2022-10-15T05:31:23;4.00;;;3.60;;
1567;SDS011;777;47.156;8.326;2022-10-15T05:34:04;9.82;;;4.45;;
1567;SDS011;777;47.156;8.326;2022-10-15T05:36:36;4.68;;;4.18;;
1567;SDS011;777;47.156;8.326;2022-10-15T05:39:04;8.18;;;4.85;;
1567;SDS011;777;47.156;8.326;2022-10-15T05:41:40;9.57;;;5.78;;
1567;SDS011;777;47.156;8.326;2022-10-15T05:44:07;8.35;;;6.22;;
1567;SDS011;777;47.156;8.326;2022-10-15T05:46:34;7.53;;;6.82;;
1567;SDS011;777;47.156;8.326;2022-10-15T05:49:01;6.25;;;5.65;;
1567;SDS011;777;47.156;8.326;2022-10-15T05:51:38;6.15;;;4.68;;
1567;SDS011;777;47.156;8.326;2022-10-15T05:54:11;5.63;;;5.10;;
1567;SDS011;777;47.156;8.326;2022-10-15T05:56:40;5.78;;;5.20;;
1567;SDS011;777;47.156;8.326;2022-10-15T05:59:08;6.43;;;4.47;;
1567;SDS011;777;47.156;8.326;2022-10-15T06:01:35;5.68;;;5.18;;
1567;SDS011;777;47.156;8.326;2022-10-15T06:04:02;7.22;;;5.10;;
1567;SDS011;777;47.156;8.326;2022-10-15T06:06:30;5.80;;;4.93;;
1567;SDS011;777;47.156;8.326;2022-10-15T06:08:57;5.18;;;4.72;;
1567;SDS011;777;47.156;8.326;2022-10-15T06:11:26;5.55;;;4.88;;
1567;SDS011;777;47.156;8.326;2022-10-15T06:13:54;4.63;;;4.03;;
1567;SDS011;777;47.156;8.326;2022-10-15T06:16:21;4.18;;;3.70;;
1567;SDS011;777;47.156;8.326;2022-10-15T06:18:49;5.85;;;4.30;;
1567;SDS011;777;47.156;8.326;2022-10-15T06:21:17;4.50;;;3.90;;
1567;SDS011;777;47.156;8.326;2022-10-15T06:23:44;4.22;;;2.92;;
1567;SDS011;777;47.156;8.326;2022-10-15T06:26:11;3.15;;;2.65;;
1567;SDS011;777;47.156;8.326;2022-10-15T06:28:40;5.32;;;2.67;;
1567;SDS011;777;47.156;8.326;2022-10-15T06:31:08;13.88;;;3.17;;
1567;SDS011;777;47.156;8.326;2022-10-15T06:33:36;5.63;;;2.75;;
1567;SDS011;777;47.156;8.326;2022-10-15T06:36:04;2.80;;;2.42;;
1567;SDS011;777;47.156;8.326;2022-10-15T06:38:33;3.67;;;2.67;;
1567;SDS011;777;47.156;8.326;2022-10-15T06:41:02;6.30;;;3.03;;
1567;SDS011;777;47.156;8.326;2022-10-15T06:43:30;3.78;;;2.70;;
1567;SDS011;777;47.156;8.326;2022-10-15T06:45:57;4.80;;;2.40;;
1567;SDS011;777;47.156;8.326;2022-10-15T06:48:26;4.45;;;2.25;;
1567;SDS011;777;47.156;8.326;2022-10-15T06:50:53;2.90;;;2.17;;
1567;SDS011;777;47.156;8.326;2022-10-15T06:53:20;3.13;;;2.30;;
1567;SDS011;777;47.156;8.326;2022-10-15T06:55:47;3.10;;;2.13;;
1567;SDS011;777;47.156;8.326;2022-10-15T06:58:14;2.50;;;2.30;;
1567;SDS011;777;47.156;8.326;2022-10-15T07:00:41;3.53;;;2.17;;
1567;SDS011;777;47.156;8.326;2022-10-15T07:03:08;2.17;;;1.80;;
1567;SDS011;777;47.156;8.326;2022-10-15T07:05:36;2.35;;;1.90;;
1567;SDS011;777;47.156;8.326;2022-10-15T07:08:03;2.83;;;1.70;;
1567;SDS011;777;47.156;8.326;2022-10-15T07:10:30;3.33;;;2.10;;
1567;SDS011;777;47.156;8.326;2022-10-15T07:12:58;2.67;;;1.80;;
1567;SDS011;777;47.156;8.326;2022-10-15T07:15:25;4.00;;;1.30;;
1567;SDS011;777;47.156;8.326;2022-10-15T07:17:53;1.63;;;1.42;;
1567;SDS011;777;47.156;8.326;2022-10-15T07:20:25;2.58;;;1.40;;
1567;SDS011;777;47.156;8.326;2022-10-15T07:22:56;1.35;;;1.10;;
1567;SDS011;777;47.156;8.326;2022-10-15T07:25:28;3.55;;;1.00;;
1567;SDS011;777;47.156;8.326;2022-10-15T07:27:55;2.25;;;1.00;;
1567;SDS011;777;47.156;8.326;2022-10-15T07:30:23;2.05;;;1.10;;
1567;SDS011;777;47.156;8.326;2022-10-15T07:32:54;2.03;;;1.10;;
1567;SDS011;777;47.156;8.326;2022-10-15T07:35:21;2.80;;;1.20;;
1567;SDS011;777;47.156;8.326;2022-10-15T07:37:49;1.77;;;1.00;;
1567;SDS011;777;47.156;8.326;2022-10-15T07:40:17;1.10;;;0.90;;
1567;SDS011;777;47.156;8.326;2022-10-15T07:42:50;3.70;;;1.13;;
1567;SDS011;777;47.156;8.326;2022-10-15T07:45:20;3.20;;;1.20;;
1567;SDS011;777;47.156;8.326;2022-10-15T07:47:47;2.60;;;1.58;;
1567;SDS011;777;47.156;8.326;2022-10-15T07:50:14;7.72;;;4.05;;
1567;SDS011;777;47.156;8.326;2022-10-15T07:52:43;1.65;;;1.02;;
1567;SDS011;777;47.156;8.326;2022-10-15T07:55:10;2.15;;;1.05;;
1567;SDS011;777;47.156;8.326;2022-10-15T07:57:38;2.08;;;1.40;;
1567;SDS011;777;47.156;8.326;2022-10-15T08:00:06;1.45;;;1.10;;
1567;SDS011;777;47.156;8.326;2022-10-15T08:02:41;3.08;;;1.23;;
1567;SDS011;777;47.156;8.326;2022-10-15T08:05:08;2.90;;;1.42;;
1567;SDS011;777;47.156;8.326;2022-10-15T08:07:35;5.10;;;2.00;;
1567;SDS011;777;47.156;8.326;2022-10-15T08:12:39;2.75;;;1.48;;
1567;SDS011;777;47.156;8.326;2022-10-15T08:15:06;3.85;;;1.23;;
1567;SDS011;777;47.156;8.326;2022-10-15T08:17:33;3.53;;;1.20;;
1567;SDS011;777;47.156;8.326;2022-10-15T08:20:00;6.57;;;1.60;;
1567;SDS011;777;47.156;8.326;2022-10-15T08:22:28;4.53;;;1.30;;
1567;SDS011;777;47.156;8.326;2022-10-15T08:24:56;5.50;;;1.20;;
1567;SDS011;777;47.156;8.326;2022-10-15T08:27:23;2.15;;;1.30;;
1567;SDS011;777;47.156;8.326;2022-10-15T08:29:56;5.00;;;1.30;;
1567;SDS011;777;47.156;8.326;2022-10-15T08:32:23;2.85;;;1.50;;
1567;SDS011;777;47.156;8.326;2022-10-15T08:34:50;2.20;;;1.25;;
1567;SDS011;777;47.156;8.326;2022-10-15T08:37:17;2.30;;;0.90;;
1567;SDS011;777;47.156;8.326;2022-10-15T08:39:44;2.45;;;1.25;;
1567;SDS011;777;47.156;8.326;2022-10-15T08:42:13;2.88;;;0.80;;
1567;SDS011;777;47.156;8.326;2022-10-15T08:44:45;2.05;;;1.10;;
1567;SDS011;777;47.156;8.326;2022-10-15T08:47:22;1.10;;;0.80;;
1567;SDS011;777;47.156;8.326;2022-10-15T08:49:54;1.95;;;1.00;;
1567;SDS011;777;47.156;8.326;2022-10-15T08:52:28;3.90;;;1.27;;
1567;SDS011;777;47.156;8.326;2022-10-15T08:55:07;1.92;;;1.10;;
1567;SDS011;777;47.156;8.326;2022-10-15T08:57:37;2.28;;;0.98;;
1567;SDS011;777;47.156;8.326;2022-10-15T09:00:11;2.53;;;0.82;;
1567;SDS011;777;47.156;8.326;2022-10-15T09:02:45;1.57;;;0.70;;
1567;SDS011;777;47.156;8.326;2022-10-15T09:05:29;2.10;;;0.80;;
1567;SDS011;777;47.156;8.326;2022-10-15T09:08:03;6.22;;;1.00;;
1567;SDS011;777;47.156;8.326;2022-10-15T09:10:40;1.83;;;1.10;;
1567;SDS011;777;47.156;8.326;2022-10-15T09:13:15;3.08;;;1.20;;
1567;SDS011;777;47.156;8.326;2022-10-15T09:15:49;1.52;;;1.08;;
1567;SDS011;777;47.156;8.326;2022-10-15T09:18:21;5.45;;;1.67;;
1567;SDS011;777;47.156;8.326;2022-10-15T09:20:49;3.75;;;2.00;;
1567;SDS011;777;47.156;8.326;2022-10-15T09:23:18;2.22;;;1.50;;
1567;SDS011;777;47.156;8.326;2022-10-15T09:25:48;4.03;;;1.80;;
1567;SDS011;777;47.156;8.326;2022-10-15T09:30:51;5.40;;;1.90;;
1567;SDS011;777;47.156;8.326;2022-10-15T09:33:25;2.65;;;1.30;;
1567;SDS011;777;47.156;8.326;2022-10-15T09:36:02;5.18;;;2.60;;
1567;SDS011;777;47.156;8.326;2022-10-15T09:38:40;2.55;;;0.88;;
1567;SDS011;777;47.156;8.326;2022-10-15T09:41:17;3.05;;;0.68;;
1567;SDS011;777;47.156;8.326;2022-10-15T09:43:55;1.17;;;0.50;;
1567;SDS011;777;47.156;8.326;2022-10-15T09:46:27;3.22;;;0.70;;
1567;SDS011;777;47.156;8.326;2022-10-15T09:48:58;1.40;;;0.65;;
1567;SDS011;777;47.156;8.326;2022-10-15T09:51:33;1.15;;;0.50;;
1567;SDS011;777;47.156;8.326;2022-10-15T09:54:07;0.73;;;0.50;;
1567;SDS011;777;47.156;8.326;2022-10-15T09:56:44;2.17;;;0.98;;
1567;SDS011;777;47.156;8.326;2022-10-15T09:59:14;4.88;;;2.22;;
1567;SDS011;777;47.156;8.326;2022-10-15T10:01:42;1.60;;;1.08;;
1567;SDS011;777;47.156;8.326;2022-10-15T10:04:24;5.90;;;2.55;;
1567;SDS011;777;47.156;8.326;2022-10-15T10:06:55;2.17;;;1.10;;
1567;SDS011;777;47.156;8.326;2022-10-15T10:09:24;3.15;;;1.98;;
1567;SDS011;777;47.156;8.326;2022-10-15T10:11:58;7.22;;;2.83;;
1567;SDS011;777;47.156;8.326;2022-10-15T10:14:27;3.60;;;1.80;;
1567;SDS011;777;47.156;8.326;2022-10-15T10:17:11;7.10;;;4.10;;
1567;SDS011;777;47.156;8.326;2022-10-15T10:19:43;15.95;;;8.32;;
1567;SDS011;777;47.156;8.326;2022-10-15T10:22:13;5.60;;;2.85;;
1567;SDS011;777;47.156;8.326;2022-10-15T10:24:41;1.60;;;0.73;;
1567;SDS011;777;47.156;8.326;2022-10-15T10:27:17;3.15;;;1.00;;
1567;SDS011;777;47.156;8.326;2022-10-15T10:29:51;1.13;;;0.63;;
1567;SDS011;777;47.156;8.326;2022-10-15T10:32:22;3.20;;;0.70;;
1567;SDS011;777;47.156;8.326;2022-10-15T10:34:56;1.30;;;0.50;;
1567;SDS011;777;47.156;8.326;2022-10-15T10:37:24;3.95;;;0.68;;
1567;SDS011;777;47.156;8.326;2022-10-15T10:39:52;1.08;;;0.60;;
1567;SDS011;777;47.156;8.326;2022-10-15T10:42:25;1.85;;;0.65;;
1567;SDS011;777;47.156;8.326;2022-10-15T10:45:16;10.40;;;3.33;;
1567;SDS011;777;47.156;8.326;2022-10-15T10:47:45;6.68;;;1.88;;
1567;SDS011;777;47.156;8.326;2022-10-15T10:50:31;8.80;;;3.17;;
1567;SDS011;777;47.156;8.326;2022-10-15T10:53:10;5.18;;;2.00;;
1567;SDS011;777;47.156;8.326;2022-10-15T10:55:45;1.27;;;0.55;;
1567;SDS011;777;47.156;8.326;2022-10-15T10:58:14;9.88;;;3.60;;
1567;SDS011;777;47.156;8.326;2022-10-15T11:00:45;6.38;;;2.20;;
1567;SDS011;777;47.156;8.326;2022-10-15T11:03:17;4.80;;;1.65;;
1567;SDS011;777;47.156;8.326;2022-10-15T11:05:58;8.88;;;4.13;;
1567;SDS011;777;47.156;8.326;2022-10-15T11:08:34;3.75;;;2.05;;
1567;SDS011;777;47.156;8.326;2022-10-15T11:11:07;2.33;;;0.83;;
1567;SDS011;777;47.156;8.326;2022-10-15T11:13:53;1.85;;;0.47;;
1567;SDS011;777;47.156;8.326;2022-10-15T11:16:31;1.75;;;1.05;;
1567;SDS011;777;47.156;8.326;2022-10-15T11:19:07;1.02;;;0.50;;
1567;SDS011;777;47.156;8.326;2022-10-15T11:21:53;2.25;;;0.57;;
1567;SDS011;777;47.156;8.326;2022-10-15T11:24:28;1.80;;;0.40;;
1567;SDS011;777;47.156;8.326;2022-10-15T11:27:04;3.33;;;0.60;;
1567;SDS011;777;47.156;8.326;2022-10-15T11:29:41;0.80;;;0.50;;
1567;SDS011;777;47.156;8.326;2022-10-15T11:32:21;0.95;;;0.50;;
1567;SDS011;777;47.156;8.326;2022-10-15T11:35:02;3.95;;;0.73;;
1567;SDS011;777;47.156;8.326;2022-10-15T11:37:39;1.42;;;0.43;;
1567;SDS011;777;47.156;8.326;2022-10-15T11:40:18;3.35;;;0.47;;
1567;SDS011;777;47.156;8.326;2022-10-15T11:42:52;2.75;;;0.60;;
1567;SDS011;777;47.156;8.326;2022-10-15T11:45:34;0.65;;;0.30;;
1567;SDS011;777;47.156;8.326;2022-10-15T11:48:10;0.93;;;0.40;;
1567;SDS011;777;47.156;8.326;2022-10-15T11:50:43;1.25;;;0.38;;
1567;SDS011;777;47.156;8.326;2022-10-15T11:53:24;0.70;;;0.50;;
1567;SDS011;777;47.156;8.326;2022-10-15T11:56:18;0.90;;;0.40;;
1567;SDS011;777;47.156;8.326;2022-10-15T11:58:49;2.03;;;0.70;;
1567;SDS011;777;47.156;8.326;2022-10-15T12:01:22;2.72;;;0.50;;
1567;SDS011;777;47.156;8.326;2022-10-15T12:04:01;0.47;;;0.20;;
1567;SDS011;777;47.156;8.326;2022-10-15T12:06:34;1.15;;;0.50;;
1567;SDS011;777;47.156;8.326;2022-10-15T12:09:04;1.77;;;0.40;;
1567;SDS011;777;47.156;8.326;2022-10-15T12:11:37;0.63;;;0.30;;
1567;SDS011;777;47.156;8.326;2022-10-15T12:14:16;1.13;;;0.35;;
1567;SDS011;777;47.156;8.326;2022-10-15T12:16:53;2.75;;;0.70;;
1567;SDS011;777;47.156;8.326;2022-10-15T12:19:25;1.63;;;0.50;;
1567;SDS011;777;47.156;8.326;2022-10-15T12:22:00;2.63;;;0.50;;
1567;SDS011;777;47.156;8.326;2022-10-15T12:24:50;2.03;;;0.45;;
1567;SDS011;777;47.156;8.326;2022-10-15T12:27:20;3.13;;;0.70;;
1567;SDS011;777;47.156;8.326;2022-10-15T12:30:10;0.93;;;0.40;;
1567;SDS011;777;47.156;8.326;2022-10-15T12:32:50;1.83;;;0.40;;
1567;SDS011;777;47.156;8.326;2022-10-15T12:35:22;0.80;;;0.40;;
1567;SDS011;777;47.156;8.326;2022-10-15T12:37:54;2.95;;;0.50;;
1567;SDS011;777;47.156;8.326;2022-10-15T12:40:35;0.80;;;0.40;;
1567;SDS011;777;47.156;8.326;2022-10-15T12:43:10;2.67;;;0.60;;
1567;SDS011;777;47.156;8.326;2022-10-15T12:45:47;2.55;;;0.50;;
1567;SDS011;777;47.156;8.326;2022-10-15T12:48:20;1.10;;;0.65;;
1567;SDS011;777;47.156;8.326;2022-10-15T12:54:15;3.28;;;0.63;;
1567;SDS011;777;47.156;8.326;2022-10-15T13:00:27;1.17;;;0.50;;
1567;SDS011;777;47.156;8.326;2022-10-15T13:03:07;1.20;;;0.63;;
1567;SDS011;777;47.156;8.326;2022-10-15T13:05:49;1.85;;;0.60;;
1567;SDS011;777;47.156;8.326;2022-10-15T13:08:28;0.68;;;0.45;;
1567;SDS011;777;47.156;8.326;2022-10-15T13:10:56;1.10;;;0.40;;
1567;SDS011;777;47.156;8.326;2022-10-15T13:13:25;1.10;;;0.65;;
1567;SDS011;777;47.156;8.326;2022-10-15T13:15:56;1.88;;;0.40;;
1567;SDS011;777;47.156;8.326;2022-10-15T13:18:26;1.90;;;1.27;;
1567;SDS011;777;47.156;8.326;2022-10-15T13:20:55;2.67;;;0.80;;
1567;SDS011;777;47.156;8.326;2022-10-15T13:23:24;3.15;;;0.68;;
1567;SDS011;777;47.156;8.326;2022-10-15T13:26:10;0.98;;;0.40;;
1567;SDS011;777;47.156;8.326;2022-10-15T13:28:39;1.60;;;0.75;;
1567;SDS011;777;47.156;8.326;2022-10-15T13:31:11;3.38;;;0.40;;
1567;SDS011;777;47.156;8.326;2022-10-15T13:33:42;2.20;;;0.93;;
1567;SDS011;777;47.156;8.326;2022-10-15T13:36:16;1.15;;;0.60;;
1567;SDS011;777;47.156;8.326;2022-10-15T13:38:50;0.90;;;0.50;;
1567;SDS011;777;47.156;8.326;2022-10-15T13:41:27;1.38;;;0.52;;
1567;SDS011;777;47.156;8.326;2022-10-15T13:43:57;1.73;;;0.50;;
1567;SDS011;777;47.156;8.326;2022-10-15T13:46:28;1.33;;;0.50;;
1567;SDS011;777;47.156;8.326;2022-10-15T13:48:58;2.05;;;0.60;;
1567;SDS011;777;47.156;8.326;2022-10-15T13:51:28;1.67;;;0.32;;
1567;SDS011;777;47.156;8.326;2022-10-15T13:54:00;0.93;;;0.30;;
1567;SDS011;777;47.156;8.326;2022-10-15T13:56:28;1.50;;;0.77;;
1567;SDS011;777;47.156;8.326;2022-10-15T13:58:56;2.55;;;0.38;;
1567;SDS011;777;47.156;8.326;2022-10-15T14:01:25;0.80;;;0.40;;
1567;SDS011;777;47.156;8.326;2022-10-15T14:03:54;2.53;;;0.30;;
1567;SDS011;777;47.156;8.326;2022-10-15T14:06:24;0.85;;;0.28;;
1567;SDS011;777;47.156;8.326;2022-10-15T14:08:52;0.80;;;0.30;;
1567;SDS011;777;47.156;8.326;2022-10-15T14:11:21;0.80;;;0.32;;
1567;SDS011;777;47.156;8.326;2022-10-15T14:13:49;3.28;;;0.35;;
1567;SDS011;777;47.156;8.326;2022-10-15T14:16:18;1.23;;;0.40;;
1567;SDS011;777;47.156;8.326;2022-10-15T14:18:49;1.15;;;0.30;;
1567;SDS011;777;47.156;8.326;2022-10-15T14:21:19;1.73;;;0.40;;
1567;SDS011;777;47.156;8.326;2022-10-15T14:24:00;1.02;;;0.30;;
1567;SDS011;777;47.156;8.326;2022-10-15T14:26:29;1.15;;;0.30;;
1567;SDS011;777;47.156;8.326;2022-10-15T14:28:57;1.02;;;0.30;;
1567;SDS011;777;47.156;8.326;2022-10-15T14:31:29;0.63;;;0.32;;
1567;SDS011;777;47.156;8.326;2022-10-15T14:34:00;0.40;;;0.30;;
1567;SDS011;777;47.156;8.326;2022-10-15T14:36:28;0.60;;;0.40;;
1567;SDS011;777;47.156;8.326;2022-10-15T14:41:55;1.58;;;0.40;;
1567;SDS011;777;47.156;8.326;2022-10-15T14:44:23;0.95;;;0.30;;
1567;SDS011;777;47.156;8.326;2022-10-15T14:46:51;2.70;;;0.60;;
1567;SDS011;777;47.156;8.326;2022-10-15T14:49:27;1.08;;;0.47;;
1567;SDS011;777;47.156;8.326;2022-10-15T14:51:57;1.33;;;0.55;;
1567;SDS011;777;47.156;8.326;2022-10-15T14:54:30;1.58;;;0.50;;
1567;SDS011;777;47.156;8.326;2022-10-15T14:57:02;2.35;;;0.60;;
1567;SDS011;777;47.156;8.326;2022-10-15T14:59:31;3.38;;;0.40;;
1567;SDS011;777;47.156;8.326;2022-10-15T15:02:02;2.22;;;0.50;;
1567;SDS011;777;47.156;8.326;2022-10-15T15:04:41;2.30;;;0.50;;
1567;SDS011;777;47.156;8.326;2022-10-15T15:07:15;2.00;;;0.50;;
1567;SDS011;777;47.156;8.326;2022-10-15T15:09:47;1.77;;;1.00;;
1567;SDS011;777;47.156;8.326;2022-10-15T15:12:18;1.55;;;0.57;;
1567;SDS011;777;47.156;8.326;2022-10-15T15:14:47;2.05;;;0.50;;
1567;SDS011;777;47.156;8.326;2022-10-15T15:17:16;2.58;;;1.15;;
1567;SDS011;777;47.156;8.326;2022-10-15T15:19:48;1.23;;;0.60;;
1567;SDS011;777;47.156;8.326;2022-10-15T15:22:17;2.85;;;0.70;;
1567;SDS011;777;47.156;8.326;2022-10-15T15:24:48;2.05;;;0.68;;
1567;SDS011;777;47.156;8.326;2022-10-15T15:27:19;0.88;;;0.50;;
1567;SDS011;777;47.156;8.326;2022-10-15T15:29:48;1.52;;;0.52;;
1567;SDS011;777;47.156;8.326;2022-10-15T15:32:16;1.33;;;0.40;;
1567;SDS011;777;47.156;8.326;2022-10-15T15:34:43;1.40;;;0.70;;
1567;SDS011;777;47.156;8.326;2022-10-15T15:37:15;1.02;;;0.60;;
1567;SDS011;777;47.156;8.326;2022-10-15T15:39:44;0.90;;;0.60;;
1567;SDS011;777;47.156;8.326;2022-10-15T15:42:12;4.38;;;0.70;;
1567;SDS011;777;47.156;8.326;2022-10-15T15:44:39;1.38;;;0.60;;
1567;SDS011;777;47.156;8.326;2022-10-15T15:47:06;2.97;;;0.77;;
1567;SDS011;777;47.156;8.326;2022-10-15T15:49:34;0.80;;;0.50;;
1567;SDS011;777;47.156;8.326;2022-10-15T15:52:02;1.65;;;0.47;;
1567;SDS011;777;47.156;8.326;2022-10-15T15:54:30;1.73;;;0.63;;
1567;SDS011;777;47.156;8.326;2022-10-15T15:56:57;1.55;;;0.40;;
1567;SDS011;777;47.156;8.326;2022-10-15T15:59:24;1.27;;;0.65;;
1567;SDS011;777;47.156;8.326;2022-10-15T16:01:51;3.58;;;0.93;;
1567;SDS011;777;47.156;8.326;2022-10-15T16:04:18;2.13;;;0.70;;
1567;SDS011;777;47.156;8.326;2022-10-15T16:06:46;2.35;;;0.80;;
1567;SDS011;777;47.156;8.326;2022-10-15T16:09:14;3.08;;;0.68;;
1567;SDS011;777;47.156;8.326;2022-10-15T16:11:43;1.88;;;0.50;;
1567;SDS011;777;47.156;8.326;2022-10-15T16:14:10;2.97;;;0.50;;
1567;SDS011;777;47.156;8.326;2022-10-15T16:16:37;1.58;;;0.60;;